sensor_id;sensor_type;location;lat;lon;timestamp;temperature;humidity
48043;DHT22;33988;47.992;8.820;2023-02-01T00:01:25;7.60;58.10
48043;DHT22;33988;47.992;8.820;2023-02-01T00:03:52;7.60;58.10
48043;DHT22;33988;47.992;8.820;2023-02-01T00:06:19;7.50;58.10
48043;DHT22;33988;47.992;8.820;2023-02-01T00:08:46;7.60;58.10
48043;DHT22;33988;47.992;8.820;2023-02-01T00:11:13;7.60;58.10
48043;DHT22;33988;47.992;8.820;2023-02-01T00:13:41;7.50;58.00
48043;DHT22;33988;47.992;8.820;2023-02-01T00:16:14;7.50;58.00
48043;DHT22;33988;47.992;8.820;2023-02-01T00:18:45;7.50;58.00
48043;DHT22;33988;47.992;8.820;2023-02-01T00:21:17;7.50;58.10
48043;DHT22;33988;47.992;8.820;2023-02-01T00:23:46;7.40;58.10
48043;DHT22;33988;47.992;8.820;2023-02-01T00:26:18;7.50;58.20
48043;DHT22;33988;47.992;8.820;2023-02-01T00:28:48;7.50;58.20
48043;DHT22;33988;47.992;8.820;2023-02-01T00:31:15;7.40;58.10
48043;DHT22;33988;47.992;8.820;2023-02-01T00:33:42;7.40;58.20
48043;DHT22;33988;47.992;8.820;2023-02-01T00:36:09;7.40;58.20
48043;DHT22;33988;47.992;8.820;2023-02-01T00:38:37;7.40;58.20
48043;DHT22;33988;47.992;8.820;2023-02-01T00:41:13;7.40;58.20
48043;DHT22;33988;47.992;8.820;2023-02-01T00:43:47;7.40;58.40
48043;DHT22;33988;47.992;8.820;2023-02-01T00:46:17;7.30;58.40
48043;DHT22;33988;47.992;8.820;2023-02-01T00:48:48;7.40;58.50
48043;DHT22;33988;47.992;8.820;2023-02-01T00:51:19;7.40;58.50
48043;DHT22;33988;47.992;8.820;2023-02-01T00:53:48;7.40;58.50
48043;DHT22;33988;47.992;8.820;2023-02-01T00:56:16;7.20;58.70
48043;DHT22;33988;47.992;8.820;2023-02-01T00:58:46;7.40;58.50
48043;DHT22;33988;47.992;8.820;2023-02-01T01:01:24;7.40;58.50
48043;DHT22;33988;47.992;8.820;2023-02-01T01:04:00;7.40;58.50
48043;DHT22;33988;47.992;8.820;2023-02-01T01:06:32;7.40;58.60
48043;DHT22;33988;47.992;8.820;2023-02-01T01:09:02;7.50;58.60
48043;DHT22;33988;47.992;8.820;2023-02-01T01:11:34;7.50;58.70
48043;DHT22;33988;47.992;8.820;2023-02-01T01:14:03;7.50;58.70
48043;DHT22;33988;47.992;8.820;2023-02-01T01:16:32;7.40;59.00
48043;DHT22;33988;47.992;8.820;2023-02-01T01:19:00;7.50;58.70
48043;DHT22;33988;47.992;8.820;2023-02-01T01:21:28;7.50;58.70
48043;DHT22;33988;47.992;8.820;2023-02-01T01:23:55;7.50;58.80
48043;DHT22;33988;47.992;8.820;2023-02-01T01:26:25;7.60;58.90
48043;DHT22;33988;47.992;8.820;2023-02-01T01:28:57;7.60;58.90
48043;DHT22;33988;47.992;8.820;2023-02-01T01:31:26;7.60;59.00
48043;DHT22;33988;47.992;8.820;2023-02-01T01:33:55;7.60;58.90
48043;DHT22;33988;47.992;8.820;2023-02-01T01:36:24;7.60;58.90
48043;DHT22;33988;47.992;8.820;2023-02-01T01:38:56;7.60;58.90
48043;DHT22;33988;47.992;8.820;2023-02-01T01:41:31;7.60;58.90
48043;DHT22;33988;47.992;8.820;2023-02-01T01:44:06;7.70;59.00
48043;DHT22;33988;47.992;8.820;2023-02-01T01:47:11;7.70;59.00
48043;DHT22;33988;47.992;8.820;2023-02-01T01:49:41;7.70;58.90
48043;DHT22;33988;47.992;8.820;2023-02-01T01:52:11;7.70;58.90
48043;DHT22;33988;47.992;8.820;2023-02-01T01:54:46;7.70;58.80
48043;DHT22;33988;47.992;8.820;2023-02-01T01:57:23;7.80;58.90
48043;DHT22;33988;47.992;8.820;2023-02-01T01:59:59;7.80;58.90
48043;DHT22;33988;47.992;8.820;2023-02-01T02:02:39;7.70;58.80
48043;DHT22;33988;47.992;8.820;2023-02-01T02:05:08;7.80;58.80
48043;DHT22;33988;47.992;8.820;2023-02-01T02:07:41;7.80;58.80
48043;DHT22;33988;47.992;8.820;2023-02-01T02:10:12;7.80;58.80
48043;DHT22;33988;47.992;8.820;2023-02-01T02:12:46;7.80;58.80
48043;DHT22;33988;47.992;8.820;2023-02-01T02:15:15;7.60;59.00
48043;DHT22;33988;47.992;8.820;2023-02-01T02:17:55;7.70;58.80
48043;DHT22;33988;47.992;8.820;2023-02-01T02:20:49;7.70;58.70
48043;DHT22;33988;47.992;8.820;2023-02-01T02:32:44;7.60;58.90
48043;DHT22;33988;47.992;8.820;2023-02-01T02:38:15;7.60;58.80
48043;DHT22;33988;47.992;8.820;2023-02-01T02:41:13;7.60;58.90
48043;DHT22;33988;47.992;8.820;2023-02-01T02:44:11;7.60;58.90
48043;DHT22;33988;47.992;8.820;2023-02-01T02:47:13;7.60;58.80
48043;DHT22;33988;47.992;8.820;2023-02-01T02:53:34;7.60;58.80
48043;DHT22;33988;47.992;8.820;2023-02-01T02:56:23;7.60;58.90
48043;DHT22;33988;47.992;8.820;2023-02-01T02:59:13;7.60;58.90
48043;DHT22;33988;47.992;8.820;2023-02-01T03:02:02;7.60;58.90
48043;DHT22;33988;47.992;8.820;2023-02-01T03:04:52;7.60;58.90
48043;DHT22;33988;47.992;8.820;2023-02-01T03:10:32;7.50;59.00
48043;DHT22;33988;47.992;8.820;2023-02-01T03:16:23;7.60;59.00
48043;DHT22;33988;47.992;8.820;2023-02-01T03:18:57;7.50;59.10
48043;DHT22;33988;47.992;8.820;2023-02-01T03:21:43;7.60;59.10
48043;DHT22;33988;47.992;8.820;2023-02-01T03:27:14;7.50;59.10
48043;DHT22;33988;47.992;8.820;2023-02-01T03:32:45;7.60;59.10
48043;DHT22;33988;47.992;8.820;2023-02-01T03:38:34;7.60;59.20
48043;DHT22;33988;47.992;8.820;2023-02-01T03:41:17;7.60;59.30
48043;DHT22;33988;47.992;8.820;2023-02-01T03:44:01;7.60;59.20
48043;DHT22;33988;47.992;8.820;2023-02-01T03:46:37;7.60;59.20
48043;DHT22;33988;47.992;8.820;2023-02-01T03:49:09;7.60;59.20
48043;DHT22;33988;47.992;8.820;2023-02-01T03:51:41;7.70;59.20
48043;DHT22;33988;47.992;8.820;2023-02-01T03:54:11;7.50;59.40
48043;DHT22;33988;47.992;8.820;2023-02-01T03:56:42;7.60;59.30
48043;DHT22;33988;47.992;8.820;2023-02-01T03:59:14;7.60;59.20
48043;DHT22;33988;47.992;8.820;2023-02-01T04:01:43;7.70;59.30
48043;DHT22;33988;47.992;8.820;2023-02-01T04:04:10;7.70;59.30
48043;DHT22;33988;47.992;8.820;2023-02-01T04:06:50;7.70;59.30
48043;DHT22;33988;47.992;8.820;2023-02-01T04:09:19;7.70;59.40
48043;DHT22;33988;47.992;8.820;2023-02-01T04:11:46;7.70;59.40
48043;DHT22;33988;47.992;8.820;2023-02-01T04:14:13;7.80;59.50
48043;DHT22;33988;47.992;8.820;2023-02-01T04:16:42;7.80;59.50
48043;DHT22;33988;47.992;8.820;2023-02-01T04:19:14;7.80;59.50
48043;DHT22;33988;47.992;8.820;2023-02-01T04:21:41;7.80;59.60
48043;DHT22;33988;47.992;8.820;2023-02-01T04:24:08;7.90;59.60
48043;DHT22;33988;47.992;8.820;2023-02-01T04:26:37;7.80;59.60
48043;DHT22;33988;47.992;8.820;2023-02-01T04:29:04;7.90;60.40
48043;DHT22;33988;47.992;8.820;2023-02-01T04:31:34;7.90;59.70
48043;DHT22;33988;47.992;8.820;2023-02-01T04:34:02;7.90;59.70
48043;DHT22;33988;47.992;8.820;2023-02-01T04:36:31;7.90;59.70
48043;DHT22;33988;47.992;8.820;2023-02-01T04:38:58;7.90;59.70
48043;DHT22;33988;47.992;8.820;2023-02-01T04:41:25;7.90;59.80
48043;DHT22;33988;47.992;8.820;2023-02-01T04:43:56;7.90;59.80
48043;DHT22;33988;47.992;8.820;2023-02-01T04:46:25;7.90;59.80
48043;DHT22;33988;47.992;8.820;2023-02-01T04:48:52;7.90;59.80
48043;DHT22;33988;47.992;8.820;2023-02-01T04:51:21;8.00;59.90
48043;DHT22;33988;47.992;8.820;2023-02-01T04:53:53;7.90;59.90
48043;DHT22;33988;47.992;8.820;2023-02-01T04:56:24;7.90;59.90
48043;DHT22;33988;47.992;8.820;2023-02-01T04:58:58;8.00;60.00
48043;DHT22;33988;47.992;8.820;2023-02-01T05:01:27;8.00;60.00
48043;DHT22;33988;47.992;8.820;2023-02-01T05:03:55;8.00;60.00
48043;DHT22;33988;47.992;8.820;2023-02-01T05:06:24;8.00;60.00
48043;DHT22;33988;47.992;8.820;2023-02-01T05:08:51;8.00;60.00
48043;DHT22;33988;47.992;8.820;2023-02-01T05:11:18;8.00;60.00
48043;DHT22;33988;47.992;8.820;2023-02-01T05:14:03;8.00;60.00
48043;DHT22;33988;47.992;8.820;2023-02-01T05:16:32;8.00;60.00
48043;DHT22;33988;47.992;8.820;2023-02-01T05:19:01;8.00;60.10
48043;DHT22;33988;47.992;8.820;2023-02-01T05:21:33;7.90;60.60
48043;DHT22;33988;47.992;8.820;2023-02-01T05:24:02;8.00;60.10
48043;DHT22;33988;47.992;8.820;2023-02-01T05:26:47;8.10;60.10
48043;DHT22;33988;47.992;8.820;2023-02-01T05:29:16;8.10;60.10
48043;DHT22;33988;47.992;8.820;2023-02-01T05:31:46;8.00;60.00
48043;DHT22;33988;47.992;8.820;2023-02-01T05:34:20;8.00;60.00
48043;DHT22;33988;47.992;8.820;2023-02-01T05:36:50;8.10;60.10
48043;DHT22;33988;47.992;8.820;2023-02-01T05:39:17;8.00;60.00
48043;DHT22;33988;47.992;8.820;2023-02-01T05:41:44;8.00;60.00
48043;DHT22;33988;47.992;8.820;2023-02-01T05:44:11;8.00;60.00
48043;DHT22;33988;47.992;8.820;2023-02-01T05:46:38;8.00;60.10
48043;DHT22;33988;47.992;8.820;2023-02-01T05:49:07;8.10;60.20
48043;DHT22;33988;47.992;8.820;2023-02-01T05:51:34;8.00;60.10
48043;DHT22;33988;47.992;8.820;2023-02-01T05:54:01;8.00;60.10
48043;DHT22;33988;47.992;8.820;2023-02-01T05:56:30;8.00;60.20
48043;DHT22;33988;47.992;8.820;2023-02-01T05:59:00;8.00;60.30
48043;DHT22;33988;47.992;8.820;2023-02-01T06:01:25;8.00;60.30
48043;DHT22;33988;47.992;8.820;2023-02-01T06:03:52;8.00;60.20
48043;DHT22;33988;47.992;8.820;2023-02-01T06:06:21;8.00;60.30
48043;DHT22;33988;47.992;8.820;2023-02-01T06:08:51;8.00;60.30
48043;DHT22;33988;47.992;8.820;2023-02-01T06:11:18;7.90;60.40
48043;DHT22;33988;47.992;8.820;2023-02-01T06:13:58;8.00;60.40
48043;DHT22;33988;47.992;8.820;2023-02-01T06:16:27;8.00;60.50
48043;DHT22;33988;47.992;8.820;2023-02-01T06:18:54;7.90;60.50
48043;DHT22;33988;47.992;8.820;2023-02-01T06:21:21;7.90;60.50
48043;DHT22;33988;47.992;8.820;2023-02-01T06:23:54;7.90;60.50
48043;DHT22;33988;47.992;8.820;2023-02-01T06:26:21;7.90;60.60
48043;DHT22;33988;47.992;8.820;2023-02-01T06:28:48;8.00;60.60
48043;DHT22;33988;47.992;8.820;2023-02-01T06:31:15;7.90;60.60
48043;DHT22;33988;47.992;8.820;2023-02-01T06:33:42;7.90;60.70
48043;DHT22;33988;47.992;8.820;2023-02-01T06:36:12;8.00;60.80
48043;DHT22;33988;47.992;8.820;2023-02-01T06:38:39;7.90;60.70
48043;DHT22;33988;47.992;8.820;2023-02-01T06:41:07;7.90;60.80
48043;DHT22;33988;47.992;8.820;2023-02-01T06:43:34;7.90;60.70
48043;DHT22;33988;47.992;8.820;2023-02-01T06:46:03;7.90;60.70
48043;DHT22;33988;47.992;8.820;2023-02-01T06:48:35;7.90;60.70
48043;DHT22;33988;47.992;8.820;2023-02-01T06:51:03;7.90;60.90
48043;DHT22;33988;47.992;8.820;2023-02-01T06:53:35;7.80;60.80
48043;DHT22;33988;47.992;8.820;2023-02-01T06:56:05;7.80;60.80
48043;DHT22;33988;47.992;8.820;2023-02-01T06:58:33;7.80;60.80
48043;DHT22;33988;47.992;8.820;2023-02-01T07:01:09;7.80;61.00
48043;DHT22;33988;47.992;8.820;2023-02-01T07:03:39;7.80;61.20
48043;DHT22;33988;47.992;8.820;2023-02-01T07:06:06;7.80;61.10
48043;DHT22;33988;47.992;8.820;2023-02-01T07:08:37;7.80;61.10
48043;DHT22;33988;47.992;8.820;2023-02-01T07:11:12;7.80;61.10
48043;DHT22;33988;47.992;8.820;2023-02-01T07:13:41;7.80;61.20
48043;DHT22;33988;47.992;8.820;2023-02-01T07:16:18;7.80;61.10
48043;DHT22;33988;47.992;8.820;2023-02-01T07:18:53;7.80;61.30
48043;DHT22;33988;47.992;8.820;2023-02-01T07:21:20;7.80;61.20
48043;DHT22;33988;47.992;8.820;2023-02-01T07:23:47;7.80;61.20
48043;DHT22;33988;47.992;8.820;2023-02-01T07:26:16;7.90;61.20
48043;DHT22;33988;47.992;8.820;2023-02-01T07:28:46;7.80;61.10
48043;DHT22;33988;47.992;8.820;2023-02-01T07:31:17;7.80;61.10
48043;DHT22;33988;47.992;8.820;2023-02-01T07:33:49;7.90;61.20
48043;DHT22;33988;47.992;8.820;2023-02-01T07:36:23;7.90;61.20
48043;DHT22;33988;47.992;8.820;2023-02-01T07:38:50;7.90;61.30
48043;DHT22;33988;47.992;8.820;2023-02-01T07:41:26;7.70;61.50
48043;DHT22;33988;47.992;8.820;2023-02-01T07:43:55;7.80;61.20
48043;DHT22;33988;47.992;8.820;2023-02-01T07:46:23;7.90;61.20
48043;DHT22;33988;47.992;8.820;2023-02-01T07:48:52;7.90;61.20
48043;DHT22;33988;47.992;8.820;2023-02-01T07:51:21;7.90;61.20
48043;DHT22;33988;47.992;8.820;2023-02-01T07:53:48;7.90;61.10
48043;DHT22;33988;47.992;8.820;2023-02-01T07:56:22;7.90;61.20
48043;DHT22;33988;47.992;8.820;2023-02-01T07:58:50;7.90;61.20
48043;DHT22;33988;47.992;8.820;2023-02-01T08:01:21;7.90;61.20
48043;DHT22;33988;47.992;8.820;2023-02-01T08:03:56;7.90;61.30
48043;DHT22;33988;47.992;8.820;2023-02-01T08:06:28;7.90;61.40
48043;DHT22;33988;47.992;8.820;2023-02-01T08:09:03;8.00;61.30
48043;DHT22;33988;47.992;8.820;2023-02-01T08:11:36;8.00;61.30
48043;DHT22;33988;47.992;8.820;2023-02-01T08:14:06;8.00;61.30
48043;DHT22;33988;47.992;8.820;2023-02-01T08:16:34;8.00;61.20
48043;DHT22;33988;47.992;8.820;2023-02-01T08:19:03;8.00;61.20
48043;DHT22;33988;47.992;8.820;2023-02-01T08:21:30;8.00;61.20
48043;DHT22;33988;47.992;8.820;2023-02-01T08:24:05;8.10;61.30
48043;DHT22;33988;47.992;8.820;2023-02-01T08:26:35;8.10;61.20
48043;DHT22;33988;47.992;8.820;2023-02-01T08:29:07;8.10;61.10
48043;DHT22;33988;47.992;8.820;2023-02-01T08:31:38;8.10;61.00
48043;DHT22;33988;47.992;8.820;2023-02-01T08:34:08;8.20;61.10
48043;DHT22;33988;47.992;8.820;2023-02-01T08:36:38;8.20;61.00
48043;DHT22;33988;47.992;8.820;2023-02-01T08:39:05;8.20;60.90
48043;DHT22;33988;47.992;8.820;2023-02-01T08:41:38;8.20;60.90
48043;DHT22;33988;47.992;8.820;2023-02-01T08:44:05;8.20;60.80
48043;DHT22;33988;47.992;8.820;2023-02-01T08:46:33;8.20;60.80
48043;DHT22;33988;47.992;8.820;2023-02-01T08:49:00;8.20;60.80
48043;DHT22;33988;47.992;8.820;2023-02-01T08:51:29;8.20;60.80
48043;DHT22;33988;47.992;8.820;2023-02-01T08:53:58;8.20;60.80
48043;DHT22;33988;47.992;8.820;2023-02-01T08:56:28;8.20;60.80
48043;DHT22;33988;47.992;8.820;2023-02-01T08:58:55;8.20;60.80
48043;DHT22;33988;47.992;8.820;2023-02-01T09:01:22;8.20;60.80
48043;DHT22;33988;47.992;8.820;2023-02-01T09:03:49;8.30;60.70
48043;DHT22;33988;47.992;8.820;2023-02-01T09:06:18;8.20;60.60
48043;DHT22;33988;47.992;8.820;2023-02-01T09:08:47;8.20;60.50
48043;DHT22;33988;47.992;8.820;2023-02-01T09:11:16;8.20;60.50
48043;DHT22;33988;47.992;8.820;2023-02-01T09:13:46;8.20;60.40
48043;DHT22;33988;47.992;8.820;2023-02-01T09:16:17;8.20;60.40
48043;DHT22;33988;47.992;8.820;2023-02-01T09:18:44;8.30;60.50
48043;DHT22;33988;47.992;8.820;2023-02-01T09:21:29;8.20;60.50
48043;DHT22;33988;47.992;8.820;2023-02-01T09:23:58;8.20;60.60
48043;DHT22;33988;47.992;8.820;2023-02-01T09:26:26;8.30;60.80
48043;DHT22;33988;47.992;8.820;2023-02-01T09:28:59;8.30;61.00
48043;DHT22;33988;47.992;8.820;2023-02-01T09:31:30;8.40;61.20
48043;DHT22;33988;47.992;8.820;2023-02-01T09:33:57;8.50;61.10
48043;DHT22;33988;47.992;8.820;2023-02-01T09:36:28;8.60;61.10
48043;DHT22;33988;47.992;8.820;2023-02-01T09:38:58;8.60;60.80
48043;DHT22;33988;47.992;8.820;2023-02-01T09:41:43;8.50;60.90
48043;DHT22;33988;47.992;8.820;2023-02-01T09:47:35;8.80;60.50
48043;DHT22;33988;47.992;8.820;2023-02-01T09:50:15;8.80;60.30
48043;DHT22;33988;47.992;8.820;2023-02-01T09:55:59;8.80;60.10
48043;DHT22;33988;47.992;8.820;2023-02-01T09:59:01;8.80;60.00
48043;DHT22;33988;47.992;8.820;2023-02-01T10:01:36;8.80;60.00
48043;DHT22;33988;47.992;8.820;2023-02-01T10:04:14;8.80;59.90
48043;DHT22;33988;47.992;8.820;2023-02-01T10:24:41;8.80;59.90
48043;DHT22;33988;47.992;8.820;2023-02-01T10:27:20;8.80;59.80
48043;DHT22;33988;47.992;8.820;2023-02-01T10:30:01;8.80;59.80
48043;DHT22;33988;47.992;8.820;2023-02-01T10:32:34;8.80;59.80
48043;DHT22;33988;47.992;8.820;2023-02-01T10:35:26;8.80;59.80
48043;DHT22;33988;47.992;8.820;2023-02-01T10:37:58;8.90;59.80
48043;DHT22;33988;47.992;8.820;2023-02-01T10:40:29;8.90;59.70
48043;DHT22;33988;47.992;8.820;2023-02-01T10:43:00;8.90;59.60
48043;DHT22;33988;47.992;8.820;2023-02-01T10:45:32;8.90;59.60
48043;DHT22;33988;47.992;8.820;2023-02-01T10:48:02;8.90;59.60
48043;DHT22;33988;47.992;8.820;2023-02-01T10:56:23;8.90;59.70
48043;DHT22;33988;47.992;8.820;2023-02-01T10:59:03;8.90;59.70
48043;DHT22;33988;47.992;8.820;2023-02-01T11:01:43;8.90;59.70
48043;DHT22;33988;47.992;8.820;2023-02-01T11:04:16;8.90;59.70
48043;DHT22;33988;47.992;8.820;2023-02-01T11:06:51;8.90;59.70
48043;DHT22;33988;47.992;8.820;2023-02-01T11:09:22;8.90;59.60
48043;DHT22;33988;47.992;8.820;2023-02-01T11:17:10;9.00;59.70
48043;DHT22;33988;47.992;8.820;2023-02-01T11:19:47;9.00;59.70
48043;DHT22;33988;47.992;8.820;2023-02-01T11:22:15;9.00;59.70
48043;DHT22;33988;47.992;8.820;2023-02-01T11:24:44;9.00;59.70
48043;DHT22;33988;47.992;8.820;2023-02-01T11:27:18;9.10;59.70
48043;DHT22;33988;47.992;8.820;2023-02-01T11:29:58;9.10;59.70
48043;DHT22;33988;47.992;8.820;2023-02-01T11:32:27;9.10;59.70
48043;DHT22;33988;47.992;8.820;2023-02-01T11:34:59;9.10;59.60
48043;DHT22;33988;47.992;8.820;2023-02-01T11:37:41;9.20;59.70
48043;DHT22;33988;47.992;8.820;2023-02-01T11:42:57;9.20;59.70
48043;DHT22;33988;47.992;8.820;2023-02-01T11:45:29;9.30;59.80
48043;DHT22;33988;47.992;8.820;2023-02-01T11:47:58;9.30;59.80
48043;DHT22;33988;47.992;8.820;2023-02-01T11:50:44;9.40;59.80
48043;DHT22;33988;47.992;8.820;2023-02-01T11:53:23;9.50;59.70
48043;DHT22;33988;47.992;8.820;2023-02-01T11:56:14;9.50;59.60
48043;DHT22;33988;47.992;8.820;2023-02-01T12:08:21;9.60;59.10
48043;DHT22;33988;47.992;8.820;2023-02-01T12:31:00;9.70;58.70
48043;DHT22;33988;47.992;8.820;2023-02-01T12:42:16;9.60;58.40
48043;DHT22;33988;47.992;8.820;2023-02-01T12:44:54;9.60;58.50
48043;DHT22;33988;47.992;8.820;2023-02-01T12:47:35;9.50;58.30
48043;DHT22;33988;47.992;8.820;2023-02-01T12:52:47;9.50;58.10
48043;DHT22;33988;47.992;8.820;2023-02-01T12:58:06;9.50;57.90
48043;DHT22;33988;47.992;8.820;2023-02-01T13:00:59;9.40;57.70
48043;DHT22;33988;47.992;8.820;2023-02-01T13:03:59;9.50;57.90
48043;DHT22;33988;47.992;8.820;2023-02-01T13:06:43;9.50;57.40
48043;DHT22;33988;47.992;8.820;2023-02-01T13:09:29;9.50;57.60
48043;DHT22;33988;47.992;8.820;2023-02-01T13:12:09;9.50;57.50
48043;DHT22;33988;47.992;8.820;2023-02-01T13:15:00;9.50;57.40
48043;DHT22;33988;47.992;8.820;2023-02-01T13:17:33;9.40;57.20
48043;DHT22;33988;47.992;8.820;2023-02-01T13:20:13;9.50;57.30
48043;DHT22;33988;47.992;8.820;2023-02-01T13:22:50;9.50;57.10
48043;DHT22;33988;47.992;8.820;2023-02-01T13:28:06;9.40;57.00
48043;DHT22;33988;47.992;8.820;2023-02-01T13:33:38;9.50;57.10
48043;DHT22;33988;47.992;8.820;2023-02-01T13:36:30;9.50;57.10
48043;DHT22;33988;47.992;8.820;2023-02-01T13:39:45;9.50;57.00
48043;DHT22;33988;47.992;8.820;2023-02-01T13:42:55;9.50;56.50
48043;DHT22;33988;47.992;8.820;2023-02-01T13:45:53;9.50;56.70
48043;DHT22;33988;47.992;8.820;2023-02-01T13:48:52;9.50;56.50
48043;DHT22;33988;47.992;8.820;2023-02-01T13:51:53;9.50;56.30
48043;DHT22;33988;47.992;8.820;2023-02-01T13:54:30;9.50;56.10
48043;DHT22;33988;47.992;8.820;2023-02-01T13:57:02;9.50;56.30
48043;DHT22;33988;47.992;8.820;2023-02-01T14:08:16;9.50;56.00
48043;DHT22;33988;47.992;8.820;2023-02-01T14:11:04;9.50;55.80
48043;DHT22;33988;47.992;8.820;2023-02-01T14:13:35;9.50;56.10
48043;DHT22;33988;47.992;8.820;2023-02-01T14:21:32;9.50;55.80
48043;DHT22;33988;47.992;8.820;2023-02-01T14:24:20;9.50;55.60
48043;DHT22;33988;47.992;8.820;2023-02-01T14:27:17;9.50;55.60
48043;DHT22;33988;47.992;8.820;2023-02-01T14:29:59;9.50;55.70
48043;DHT22;33988;47.992;8.820;2023-02-01T14:32:34;9.50;55.70
48043;DHT22;33988;47.992;8.820;2023-02-01T14:35:40;9.50;55.70
48043;DHT22;33988;47.992;8.820;2023-02-01T14:38:10;9.40;55.50
48043;DHT22;33988;47.992;8.820;2023-02-01T14:40:42;9.50;55.80
48043;DHT22;33988;47.992;8.820;2023-02-01T14:43:09;9.50;55.80
48043;DHT22;33988;47.992;8.820;2023-02-01T14:45:56;9.50;55.90
48043;DHT22;33988;47.992;8.820;2023-02-01T14:50:52;9.50;55.80
48043;DHT22;33988;47.992;8.820;2023-02-01T14:53:33;9.50;55.80
48043;DHT22;33988;47.992;8.820;2023-02-01T14:56:08;9.50;55.80
48043;DHT22;33988;47.992;8.820;2023-02-01T14:59:01;9.50;55.90
48043;DHT22;33988;47.992;8.820;2023-02-01T15:01:38;9.50;55.70
48043;DHT22;33988;47.992;8.820;2023-02-01T15:04:10;9.50;55.90
48043;DHT22;33988;47.992;8.820;2023-02-01T15:14:33;9.50;55.50
48043;DHT22;33988;47.992;8.820;2023-02-01T15:17:03;9.60;56.20
48043;DHT22;33988;47.992;8.820;2023-02-01T15:19:56;9.60;55.40
48043;DHT22;33988;47.992;8.820;2023-02-01T15:22:28;9.60;55.10
48043;DHT22;33988;47.992;8.820;2023-02-01T15:25:00;9.60;55.20
48043;DHT22;33988;47.992;8.820;2023-02-01T15:27:28;9.60;55.10
48043;DHT22;33988;47.992;8.820;2023-02-01T15:30:12;9.60;55.00
48043;DHT22;33988;47.992;8.820;2023-02-01T15:32:44;9.50;54.70
48043;DHT22;33988;47.992;8.820;2023-02-01T15:41:16;9.30;54.70
48043;DHT22;33988;47.992;8.820;2023-02-01T15:46:44;9.30;55.00
48043;DHT22;33988;47.992;8.820;2023-02-01T15:52:00;9.30;55.00
48043;DHT22;33988;47.992;8.820;2023-02-01T15:54:32;9.20;55.00
48043;DHT22;33988;47.992;8.820;2023-02-01T15:57:11;9.20;55.00
48043;DHT22;33988;47.992;8.820;2023-02-01T15:59:43;9.20;55.10
48043;DHT22;33988;47.992;8.820;2023-02-01T16:02:56;9.10;54.90
48043;DHT22;33988;47.992;8.820;2023-02-01T16:05:56;9.10;54.80
48043;DHT22;33988;47.992;8.820;2023-02-01T16:08:29;9.10;55.10
48043;DHT22;33988;47.992;8.820;2023-02-01T16:11:25;9.10;55.20
48043;DHT22;33988;47.992;8.820;2023-02-01T16:13:54;9.00;55.00
48043;DHT22;33988;47.992;8.820;2023-02-01T16:16:24;9.10;55.30
48043;DHT22;33988;47.992;8.820;2023-02-01T16:18:52;9.10;55.10
48043;DHT22;33988;47.992;8.820;2023-02-01T16:21:19;9.00;55.10
48043;DHT22;33988;47.992;8.820;2023-02-01T16:23:52;9.00;55.10
48043;DHT22;33988;47.992;8.820;2023-02-01T16:26:24;9.00;55.20
48043;DHT22;33988;47.992;8.820;2023-02-01T16:28:51;9.00;55.30
48043;DHT22;33988;47.992;8.820;2023-02-01T16:31:27;9.00;55.20
48043;DHT22;33988;47.992;8.820;2023-02-01T16:33:57;9.00;55.80
48043;DHT22;33988;47.992;8.820;2023-02-01T16:36:25;8.90;55.20
48043;DHT22;33988;47.992;8.820;2023-02-01T16:38:54;8.90;55.20
48043;DHT22;33988;47.992;8.820;2023-02-01T16:41:22;8.90;55.20
48043;DHT22;33988;47.992;8.820;2023-02-01T16:43:54;8.90;55.20
48043;DHT22;33988;47.992;8.820;2023-02-01T16:46:23;8.90;55.10
48043;DHT22;33988;47.992;8.820;2023-02-01T16:48:57;8.70;55.10
48043;DHT22;33988;47.992;8.820;2023-02-01T16:51:28;8.80;55.30
48043;DHT22;33988;47.992;8.820;2023-02-01T16:54:00;8.80;55.20
48043;DHT22;33988;47.992;8.820;2023-02-01T16:56:32;8.80;55.20
48043;DHT22;33988;47.992;8.820;2023-02-01T16:59:05;8.60;55.10
48043;DHT22;33988;47.992;8.820;2023-02-01T17:01:32;8.70;55.40
48043;DHT22;33988;47.992;8.820;2023-02-01T17:03:59;8.70;55.30
48043;DHT22;33988;47.992;8.820;2023-02-01T17:06:27;8.70;55.40
48043;DHT22;33988;47.992;8.820;2023-02-01T17:08:57;8.70;55.40
48043;DHT22;33988;47.992;8.820;2023-02-01T17:11:25;8.70;55.40
48043;DHT22;33988;47.992;8.820;2023-02-01T17:13:53;8.70;55.40
48043;DHT22;33988;47.992;8.820;2023-02-01T17:16:32;8.70;55.40
48043;DHT22;33988;47.992;8.820;2023-02-01T17:19:06;8.70;55.40
48043;DHT22;33988;47.992;8.820;2023-02-01T17:21:44;8.70;55.40
48043;DHT22;33988;47.992;8.820;2023-02-01T17:24:20;8.70;55.40
48043;DHT22;33988;47.992;8.820;2023-02-01T17:26:49;8.70;55.50
48043;DHT22;33988;47.992;8.820;2023-02-01T17:29:17;8.70;55.40
48043;DHT22;33988;47.992;8.820;2023-02-01T17:31:52;8.70;55.40
48043;DHT22;33988;47.992;8.820;2023-02-01T17:34:20;8.70;55.40
48043;DHT22;33988;47.992;8.820;2023-02-01T17:36:52;8.70;55.50
48043;DHT22;33988;47.992;8.820;2023-02-01T17:39:22;8.60;55.40
48043;DHT22;33988;47.992;8.820;2023-02-01T17:42:10;8.60;55.50
48043;DHT22;33988;47.992;8.820;2023-02-01T17:44:37;8.60;55.50
48043;DHT22;33988;47.992;8.820;2023-02-01T17:47:04;8.60;55.50
48043;DHT22;33988;47.992;8.820;2023-02-01T17:49:38;8.60;55.60
48043;DHT22;33988;47.992;8.820;2023-02-01T17:52:05;8.60;55.60
48043;DHT22;33988;47.992;8.820;2023-02-01T17:54:37;8.50;55.60
48043;DHT22;33988;47.992;8.820;2023-02-01T17:57:14;8.60;55.70
48043;DHT22;33988;47.992;8.820;2023-02-01T17:59:42;8.60;55.60
48043;DHT22;33988;47.992;8.820;2023-02-01T18:02:21;8.60;55.60
48043;DHT22;33988;47.992;8.820;2023-02-01T18:04:49;8.60;55.60
48043;DHT22;33988;47.992;8.820;2023-02-01T18:07:19;8.60;55.60
48043;DHT22;33988;47.992;8.820;2023-02-01T18:09:46;8.70;55.70
48043;DHT22;33988;47.992;8.820;2023-02-01T18:12:19;8.60;55.60
48043;DHT22;33988;47.992;8.820;2023-02-01T18:14:47;8.50;55.70
48043;DHT22;33988;47.992;8.820;2023-02-01T18:17:14;8.60;55.80
48043;DHT22;33988;47.992;8.820;2023-02-01T18:19:46;8.60;55.80
48043;DHT22;33988;47.992;8.820;2023-02-01T18:22:18;8.50;55.80
48043;DHT22;33988;47.992;8.820;2023-02-01T18:24:47;8.60;55.80
48043;DHT22;33988;47.992;8.820;2023-02-01T18:27:17;8.60;55.70
48043;DHT22;33988;47.992;8.820;2023-02-01T18:29:45;8.70;55.80
48043;DHT22;33988;47.992;8.820;2023-02-01T18:32:12;8.70;55.80
48043;DHT22;33988;47.992;8.820;2023-02-01T18:34:43;8.70;55.80
48043;DHT22;33988;47.992;8.820;2023-02-01T18:37:11;8.70;55.80
48043;DHT22;33988;47.992;8.820;2023-02-01T18:39:41;8.70;55.80
48043;DHT22;33988;47.992;8.820;2023-02-01T18:42:08;8.70;55.80
48043;DHT22;33988;47.992;8.820;2023-02-01T18:44:37;8.70;55.80
48043;DHT22;33988;47.992;8.820;2023-02-01T18:47:06;8.70;55.80
48043;DHT22;33988;47.992;8.820;2023-02-01T18:49:33;8.80;55.80
48043;DHT22;33988;47.992;8.820;2023-02-01T18:52:03;8.70;55.80
48043;DHT22;33988;47.992;8.820;2023-02-01T18:54:33;8.70;55.80
48043;DHT22;33988;47.992;8.820;2023-02-01T18:57:00;8.80;55.80
48043;DHT22;33988;47.992;8.820;2023-02-01T18:59:27;8.80;55.90